Terminal Aerodrome Forecast
Issued by NWS

Home | Current Version | Previous Version | Text Only | Print | Product List | Glossary On
Versions: 1 2 3 4 5 6 7 8 9 10 11 12 13 14 15 16 17 18 19 20 21 22 23 24 25 26 27 28 29
000
FTUS42 KCAE 172047 AAA
TAFOGB
TAF AMD
KOGB 172047Z 1721/1818 20010KT P6SM FEW045 BKN200
     FM180000 24005KT P6SM BKN150
     FM180800 25006KT 5SM BR SCT015 BKN050
     FM181100 25007KT 3SM BR OVC004
     FM181500 26010G16KT P6SM SCT008 BKN045=

USA.gov is the U.S. government's official web portal to all federal, state and local government web resources and services.